sensor_id;sensor_type;location;lat;lon;timestamp;temperature;humidity
71082;SHT31;58740;50.672;18.690;2023-03-31T00:01:12;9.88;80.39
71082;SHT31;58740;50.672;18.690;2023-03-31T00:03:39;9.86;80.40
71082;SHT31;58740;50.672;18.690;2023-03-31T00:06:12;9.84;80.40
71082;SHT31;58740;50.672;18.690;2023-03-31T00:08:45;9.83;80.35
71082;SHT31;58740;50.672;18.690;2023-03-31T00:11:19;9.81;80.29
71082;SHT31;58740;50.672;18.690;2023-03-31T00:13:48;9.81;80.20
71082;SHT31;58740;50.672;18.690;2023-03-31T00:16:16;9.80;80.17
71082;SHT31;58740;50.672;18.690;2023-03-31T00:18:44;9.81;80.19
71082;SHT31;58740;50.672;18.690;2023-03-31T00:21:21;9.81;80.17
71082;SHT31;58740;50.672;18.690;2023-03-31T00:24:01;9.80;80.24
71082;SHT31;58740;50.672;18.690;2023-03-31T00:26:32;9.78;80.16
71082;SHT31;58740;50.672;18.690;2023-03-31T00:29:03;9.79;80.07
71082;SHT31;58740;50.672;18.690;2023-03-31T00:31:33;9.77;80.11
71082;SHT31;58740;50.672;18.690;2023-03-31T00:34:02;9.76;80.16
71082;SHT31;58740;50.672;18.690;2023-03-31T00:36:30;9.77;80.16
71082;SHT31;58740;50.672;18.690;2023-03-31T00:39:04;9.75;80.09
71082;SHT31;58740;50.672;18.690;2023-03-31T00:41:36;9.75;80.07
71082;SHT31;58740;50.672;18.690;2023-03-31T00:46:43;9.76;79.96
71082;SHT31;58740;50.672;18.690;2023-03-31T00:49:20;9.74;80.01
71082;SHT31;58740;50.672;18.690;2023-03-31T00:52:09;9.73;79.87
71082;SHT31;58740;50.672;18.690;2023-03-31T00:54:55;9.70;79.77
71082;SHT31;58740;50.672;18.690;2023-03-31T00:57:27;9.69;79.71
71082;SHT31;58740;50.672;18.690;2023-03-31T01:00:01;9.65;79.70
71082;SHT31;58740;50.672;18.690;2023-03-31T01:02:41;9.63;79.67
71082;SHT31;58740;50.672;18.690;2023-03-31T01:05:26;9.59;79.64
71082;SHT31;58740;50.672;18.690;2023-03-31T01:08:17;9.53;79.53
71082;SHT31;58740;50.672;18.690;2023-03-31T01:10:57;9.49;79.61
71082;SHT31;58740;50.672;18.690;2023-03-31T01:13:30;9.45;79.63
71082;SHT31;58740;50.672;18.690;2023-03-31T01:15:58;9.42;79.72
71082;SHT31;58740;50.672;18.690;2023-03-31T01:18:26;9.42;79.69
71082;SHT31;58740;50.672;18.690;2023-03-31T01:27:25;9.38;79.71
71082;SHT31;58740;50.672;18.690;2023-03-31T01:33:11;9.34;79.64
71082;SHT31;58740;50.672;18.690;2023-03-31T01:39:00;9.29;79.46
71082;SHT31;58740;50.672;18.690;2023-03-31T01:42:16;9.27;79.41
71082;SHT31;58740;50.672;18.690;2023-03-31T01:48:12;9.24;79.40
71082;SHT31;58740;50.672;18.690;2023-03-31T01:50:50;9.26;79.39
71082;SHT31;58740;50.672;18.690;2023-03-31T01:53:35;9.26;79.23
71082;SHT31;58740;50.672;18.690;2023-03-31T01:56:24;9.26;79.24
71082;SHT31;58740;50.672;18.690;2023-03-31T01:59:13;9.23;79.20
71082;SHT31;58740;50.672;18.690;2023-03-31T02:02:31;9.22;79.25
71082;SHT31;58740;50.672;18.690;2023-03-31T02:05:08;9.20;79.29
71082;SHT31;58740;50.672;18.690;2023-03-31T02:07:42;9.18;79.31
71082;SHT31;58740;50.672;18.690;2023-03-31T02:10:19;9.18;79.30
71082;SHT31;58740;50.672;18.690;2023-03-31T02:12:50;9.18;79.23
71082;SHT31;58740;50.672;18.690;2023-03-31T02:15:21;9.20;79.19
71082;SHT31;58740;50.672;18.690;2023-03-31T02:17:55;9.21;79.10
71082;SHT31;58740;50.672;18.690;2023-03-31T02:20:26;9.21;79.08
71082;SHT31;58740;50.672;18.690;2023-03-31T02:22:55;9.22;79.05
71082;SHT31;58740;50.672;18.690;2023-03-31T02:25:27;9.19;79.01
71082;SHT31;58740;50.672;18.690;2023-03-31T02:28:03;9.16;79.01
71082;SHT31;58740;50.672;18.690;2023-03-31T02:31:20;9.14;79.00
71082;SHT31;58740;50.672;18.690;2023-03-31T02:34:16;9.10;78.98
71082;SHT31;58740;50.672;18.690;2023-03-31T02:36:43;9.11;78.99
71082;SHT31;58740;50.672;18.690;2023-03-31T02:39:13;9.11;78.90
71082;SHT31;58740;50.672;18.690;2023-03-31T02:41:47;9.09;78.92
71082;SHT31;58740;50.672;18.690;2023-03-31T02:44:15;9.09;78.87
71082;SHT31;58740;50.672;18.690;2023-03-31T02:46:44;9.08;78.85
71082;SHT31;58740;50.672;18.690;2023-03-31T02:49:12;9.07;78.85
71082;SHT31;58740;50.672;18.690;2023-03-31T02:54:48;9.02;78.82
71082;SHT31;58740;50.672;18.690;2023-03-31T03:01:06;8.97;78.85
71082;SHT31;58740;50.672;18.690;2023-03-31T03:04:06;8.95;78.81
71082;SHT31;58740;50.672;18.690;2023-03-31T03:07:00;8.93;78.78
71082;SHT31;58740;50.672;18.690;2023-03-31T03:09:50;8.93;78.74
71082;SHT31;58740;50.672;18.690;2023-03-31T03:15:34;8.89;78.73
71082;SHT31;58740;50.672;18.690;2023-03-31T03:18:07;8.85;78.61
71082;SHT31;58740;50.672;18.690;2023-03-31T03:20:35;8.81;78.56
71082;SHT31;58740;50.672;18.690;2023-03-31T03:23:03;8.78;78.57
71082;SHT31;58740;50.672;18.690;2023-03-31T03:25:31;8.77;78.52
71082;SHT31;58740;50.672;18.690;2023-03-31T03:27:58;8.77;78.50
71082;SHT31;58740;50.672;18.690;2023-03-31T03:30:26;8.75;78.47
71082;SHT31;58740;50.672;18.690;2023-03-31T03:32:54;8.73;78.36
71082;SHT31;58740;50.672;18.690;2023-03-31T03:35:22;8.69;78.39
71082;SHT31;58740;50.672;18.690;2023-03-31T03:37:50;8.64;78.44
71082;SHT31;58740;50.672;18.690;2023-03-31T03:40:18;8.61;78.54
71082;SHT31;58740;50.672;18.690;2023-03-31T03:42:46;8.59;78.59
71082;SHT31;58740;50.672;18.690;2023-03-31T03:45:13;8.59;78.59
71082;SHT31;58740;50.672;18.690;2023-03-31T03:47:41;8.61;78.53
71082;SHT31;58740;50.672;18.690;2023-03-31T03:50:09;8.60;78.46
71082;SHT31;58740;50.672;18.690;2023-03-31T03:52:40;8.60;78.43
71082;SHT31;58740;50.672;18.690;2023-03-31T03:55:08;8.59;78.40
71082;SHT31;58740;50.672;18.690;2023-03-31T03:57:38;8.59;78.33
71082;SHT31;58740;50.672;18.690;2023-03-31T04:00:06;8.56;78.36
71082;SHT31;58740;50.672;18.690;2023-03-31T04:02:38;8.53;78.32
71082;SHT31;58740;50.672;18.690;2023-03-31T04:05:07;8.52;78.30
71082;SHT31;58740;50.672;18.690;2023-03-31T04:07:36;8.49;78.35
71082;SHT31;58740;50.672;18.690;2023-03-31T04:10:03;8.47;78.30
71082;SHT31;58740;50.672;18.690;2023-03-31T04:12:35;8.47;78.28
71082;SHT31;58740;50.672;18.690;2023-03-31T04:15:03;8.45;78.29
71082;SHT31;58740;50.672;18.690;2023-03-31T04:17:32;8.43;78.22
71082;SHT31;58740;50.672;18.690;2023-03-31T04:20:02;8.41;78.22
71082;SHT31;58740;50.672;18.690;2023-03-31T04:22:38;8.38;78.27
71082;SHT31;58740;50.672;18.690;2023-03-31T04:25:09;8.35;78.24
71082;SHT31;58740;50.672;18.690;2023-03-31T04:27:43;8.32;78.18
71082;SHT31;58740;50.672;18.690;2023-03-31T04:30:23;8.29;78.18
71082;SHT31;58740;50.672;18.690;2023-03-31T04:32:58;8.26;78.17
71082;SHT31;58740;50.672;18.690;2023-03-31T04:35:30;8.24;78.27
71082;SHT31;58740;50.672;18.690;2023-03-31T04:38:22;8.24;78.35
71082;SHT31;58740;50.672;18.690;2023-03-31T04:40:53;8.25;78.30
71082;SHT31;58740;50.672;18.690;2023-03-31T04:43:22;8.23;78.29
71082;SHT31;58740;50.672;18.690;2023-03-31T04:45:50;8.23;78.45
71082;SHT31;58740;50.672;18.690;2023-03-31T04:48:17;8.24;78.44
71082;SHT31;58740;50.672;18.690;2023-03-31T04:50:45;8.26;78.41
71082;SHT31;58740;50.672;18.690;2023-03-31T04:53:13;8.27;78.42
71082;SHT31;58740;50.672;18.690;2023-03-31T04:55:41;8.28;78.32
71082;SHT31;58740;50.672;18.690;2023-03-31T04:58:09;8.30;78.30
71082;SHT31;58740;50.672;18.690;2023-03-31T05:00:38;8.34;78.27
71082;SHT31;58740;50.672;18.690;2023-03-31T05:03:05;8.36;78.27
71082;SHT31;58740;50.672;18.690;2023-03-31T05:05:34;8.34;78.18
71082;SHT31;58740;50.672;18.690;2023-03-31T05:08:02;8.33;78.27
71082;SHT31;58740;50.672;18.690;2023-03-31T05:10:31;8.34;78.25
71082;SHT31;58740;50.672;18.690;2023-03-31T05:13:00;8.34;78.14
71082;SHT31;58740;50.672;18.690;2023-03-31T05:15:28;8.31;78.11
71082;SHT31;58740;50.672;18.690;2023-03-31T05:17:56;8.31;78.16
71082;SHT31;58740;50.672;18.690;2023-03-31T05:20:25;8.32;78.10
71082;SHT31;58740;50.672;18.690;2023-03-31T05:22:52;8.32;78.10
71082;SHT31;58740;50.672;18.690;2023-03-31T05:25:20;8.34;78.06
71082;SHT31;58740;50.672;18.690;2023-03-31T05:27:48;8.33;77.99
71082;SHT31;58740;50.672;18.690;2023-03-31T05:30:17;8.33;78.02
71082;SHT31;58740;50.672;18.690;2023-03-31T05:32:45;8.34;77.93
71082;SHT31;58740;50.672;18.690;2023-03-31T05:35:12;8.35;77.83
71082;SHT31;58740;50.672;18.690;2023-03-31T05:37:40;8.36;77.90
71082;SHT31;58740;50.672;18.690;2023-03-31T05:40:08;8.39;77.99
71082;SHT31;58740;50.672;18.690;2023-03-31T05:42:37;8.47;77.97
71082;SHT31;58740;50.672;18.690;2023-03-31T05:45:05;8.55;77.83
71082;SHT31;58740;50.672;18.690;2023-03-31T05:47:35;8.67;77.82
71082;SHT31;58740;50.672;18.690;2023-03-31T05:50:03;8.80;77.63
71082;SHT31;58740;50.672;18.690;2023-03-31T05:52:34;8.91;77.44
71082;SHT31;58740;50.672;18.690;2023-03-31T05:55:03;8.95;77.20
71082;SHT31;58740;50.672;18.690;2023-03-31T05:57:31;8.95;76.93
71082;SHT31;58740;50.672;18.690;2023-03-31T05:59:59;8.95;77.03
71082;SHT31;58740;50.672;18.690;2023-03-31T06:02:27;8.97;77.05
71082;SHT31;58740;50.672;18.690;2023-03-31T06:04:54;8.99;76.92
71082;SHT31;58740;50.672;18.690;2023-03-31T06:07:23;9.00;76.97
71082;SHT31;58740;50.672;18.690;2023-03-31T06:09:51;9.03;76.84
71082;SHT31;58740;50.672;18.690;2023-03-31T06:12:19;9.05;76.88
71082;SHT31;58740;50.672;18.690;2023-03-31T06:14:46;9.10;76.99
71082;SHT31;58740;50.672;18.690;2023-03-31T06:17:14;9.11;76.91
71082;SHT31;58740;50.672;18.690;2023-03-31T06:19:42;9.14;76.94
71082;SHT31;58740;50.672;18.690;2023-03-31T06:22:10;9.18;76.89
71082;SHT31;58740;50.672;18.690;2023-03-31T06:24:37;9.24;76.79
71082;SHT31;58740;50.672;18.690;2023-03-31T06:27:05;9.28;76.74
71082;SHT31;58740;50.672;18.690;2023-03-31T06:29:33;9.33;76.64
71082;SHT31;58740;50.672;18.690;2023-03-31T06:32:01;9.38;76.42
71082;SHT31;58740;50.672;18.690;2023-03-31T06:34:31;9.41;76.50
71082;SHT31;58740;50.672;18.690;2023-03-31T06:36:59;9.44;76.41
71082;SHT31;58740;50.672;18.690;2023-03-31T06:39:27;9.47;76.45
71082;SHT31;58740;50.672;18.690;2023-03-31T06:41:55;9.52;76.49
71082;SHT31;58740;50.672;18.690;2023-03-31T06:44:23;9.59;76.38
71082;SHT31;58740;50.672;18.690;2023-03-31T06:46:51;9.69;76.24
71082;SHT31;58740;50.672;18.690;2023-03-31T06:49:18;9.78;75.98
71082;SHT31;58740;50.672;18.690;2023-03-31T06:51:46;9.89;75.83
71082;SHT31;58740;50.672;18.690;2023-03-31T06:54:14;9.98;75.34
71082;SHT31;58740;50.672;18.690;2023-03-31T06:56:41;10.07;75.30
71082;SHT31;58740;50.672;18.690;2023-03-31T06:59:09;10.17;75.20
71082;SHT31;58740;50.672;18.690;2023-03-31T07:01:37;10.28;75.12
71082;SHT31;58740;50.672;18.690;2023-03-31T07:04:05;10.39;74.88
71082;SHT31;58740;50.672;18.690;2023-03-31T07:06:33;10.53;74.47
71082;SHT31;58740;50.672;18.690;2023-03-31T07:09:02;10.65;74.14
71082;SHT31;58740;50.672;18.690;2023-03-31T07:11:30;10.75;74.28
71082;SHT31;58740;50.672;18.690;2023-03-31T07:13:58;10.78;73.97
71082;SHT31;58740;50.672;18.690;2023-03-31T07:16:26;10.81;74.08
71082;SHT31;58740;50.672;18.690;2023-03-31T07:18:53;10.88;73.95
71082;SHT31;58740;50.672;18.690;2023-03-31T07:21:25;10.97;73.74
71082;SHT31;58740;50.672;18.690;2023-03-31T07:23:53;11.05;73.67
71082;SHT31;58740;50.672;18.690;2023-03-31T07:26:20;11.15;73.59
71082;SHT31;58740;50.672;18.690;2023-03-31T07:28:48;11.23;72.99
71082;SHT31;58740;50.672;18.690;2023-03-31T07:31:18;11.28;73.02
71082;SHT31;58740;50.672;18.690;2023-03-31T07:33:45;11.32;72.88
71082;SHT31;58740;50.672;18.690;2023-03-31T07:36:13;11.37;72.53
71082;SHT31;58740;50.672;18.690;2023-03-31T07:38:42;11.40;71.86
71082;SHT31;58740;50.672;18.690;2023-03-31T07:41:13;11.42;71.57
71082;SHT31;58740;50.672;18.690;2023-03-31T07:43:47;11.48;71.23
71082;SHT31;58740;50.672;18.690;2023-03-31T07:46:17;11.58;71.46
71082;SHT31;58740;50.672;18.690;2023-03-31T07:48:54;11.69;71.43
71082;SHT31;58740;50.672;18.690;2023-03-31T07:51:25;11.78;70.77
71082;SHT31;58740;50.672;18.690;2023-03-31T07:53:53;11.83;69.90
71082;SHT31;58740;50.672;18.690;2023-03-31T07:56:22;11.85;70.10
71082;SHT31;58740;50.672;18.690;2023-03-31T07:58:51;11.86;70.12
71082;SHT31;58740;50.672;18.690;2023-03-31T08:01:23;11.85;70.68
71082;SHT31;58740;50.672;18.690;2023-03-31T08:03:53;11.84;70.02
71082;SHT31;58740;50.672;18.690;2023-03-31T08:06:23;11.85;70.11
71082;SHT31;58740;50.672;18.690;2023-03-31T08:08:52;11.87;70.50
71082;SHT31;58740;50.672;18.690;2023-03-31T08:11:20;11.88;70.44
71082;SHT31;58740;50.672;18.690;2023-03-31T08:13:48;11.92;70.10
71082;SHT31;58740;50.672;18.690;2023-03-31T08:16:17;12.00;70.14
71082;SHT31;58740;50.672;18.690;2023-03-31T08:18:45;12.10;70.00
71082;SHT31;58740;50.672;18.690;2023-03-31T08:21:13;12.16;69.49
71082;SHT31;58740;50.672;18.690;2023-03-31T08:23:40;12.21;69.71
71082;SHT31;58740;50.672;18.690;2023-03-31T08:26:12;12.29;68.73
71082;SHT31;58740;50.672;18.690;2023-03-31T08:28:44;12.36;68.88
71082;SHT31;58740;50.672;18.690;2023-03-31T08:31:15;12.45;69.02
71082;SHT31;58740;50.672;18.690;2023-03-31T08:33:46;12.53;69.18
71082;SHT31;58740;50.672;18.690;2023-03-31T08:36:14;12.60;69.06
71082;SHT31;58740;50.672;18.690;2023-03-31T08:38:42;12.70;68.91
71082;SHT31;58740;50.672;18.690;2023-03-31T08:41:26;12.79;68.12
71082;SHT31;58740;50.672;18.690;2023-03-31T08:47:14;12.94;67.99
71082;SHT31;58740;50.672;18.690;2023-03-31T08:49:49;12.93;67.05
71082;SHT31;58740;50.672;18.690;2023-03-31T08:52:28;12.84;66.81
71082;SHT31;58740;50.672;18.690;2023-03-31T08:55:05;12.83;67.76
71082;SHT31;58740;50.672;18.690;2023-03-31T08:57:43;12.89;67.24
71082;SHT31;58740;50.672;18.690;2023-03-31T09:00:45;13.00;67.00
71082;SHT31;58740;50.672;18.690;2023-03-31T09:06:16;13.20;66.70
71082;SHT31;58740;50.672;18.690;2023-03-31T09:08:59;13.29;66.79
71082;SHT31;58740;50.672;18.690;2023-03-31T09:12:14;13.31;66.40
71082;SHT31;58740;50.672;18.690;2023-03-31T09:14:38;13.30;65.86
71082;SHT31;58740;50.672;18.690;2023-03-31T09:17:20;13.30;64.30
71082;SHT31;58740;50.672;18.690;2023-03-31T09:22:47;13.23;64.96
71082;SHT31;58740;50.672;18.690;2023-03-31T09:25:22;13.20;64.28
71082;SHT31;58740;50.672;18.690;2023-03-31T09:27:55;13.23;64.30
71082;SHT31;58740;50.672;18.690;2023-03-31T09:30:28;13.24;64.81
71082;SHT31;58740;50.672;18.690;2023-03-31T09:33:10;13.19;65.20
71082;SHT31;58740;50.672;18.690;2023-03-31T09:35:44;13.18;65.50
71082;SHT31;58740;50.672;18.690;2023-03-31T09:38:13;13.23;65.98
71082;SHT31;58740;50.672;18.690;2023-03-31T09:40:42;13.21;64.92
71082;SHT31;58740;50.672;18.690;2023-03-31T09:43:18;13.22;64.83
71082;SHT31;58740;50.672;18.690;2023-03-31T09:45:51;13.22;64.47
71082;SHT31;58740;50.672;18.690;2023-03-31T09:48:39;13.24;64.95
71082;SHT31;58740;50.672;18.690;2023-03-31T09:51:25;13.31;64.56
71082;SHT31;58740;50.672;18.690;2023-03-31T09:54:06;13.41;64.60
71082;SHT31;58740;50.672;18.690;2023-03-31T09:56:49;13.52;64.92
71082;SHT31;58740;50.672;18.690;2023-03-31T10:02:17;13.80;62.77
71082;SHT31;58740;50.672;18.690;2023-03-31T10:05:01;13.83;61.74
71082;SHT31;58740;50.672;18.690;2023-03-31T10:07:31;13.85;62.18
71082;SHT31;58740;50.672;18.690;2023-03-31T10:10:00;13.86;61.73
71082;SHT31;58740;50.672;18.690;2023-03-31T10:12:29;13.89;62.28
71082;SHT31;58740;50.672;18.690;2023-03-31T10:15:02;13.92;63.22
71082;SHT31;58740;50.672;18.690;2023-03-31T10:17:45;13.91;63.25
71082;SHT31;58740;50.672;18.690;2023-03-31T10:20:32;13.87;63.67
71082;SHT31;58740;50.672;18.690;2023-03-31T10:23:05;13.85;63.80
71082;SHT31;58740;50.672;18.690;2023-03-31T10:25:45;13.83;63.17
71082;SHT31;58740;50.672;18.690;2023-03-31T10:28:17;13.81;63.33
71082;SHT31;58740;50.672;18.690;2023-03-31T10:30:51;13.79;62.88
71082;SHT31;58740;50.672;18.690;2023-03-31T10:33:24;13.78;62.50
71082;SHT31;58740;50.672;18.690;2023-03-31T10:36:00;13.74;63.06
71082;SHT31;58740;50.672;18.690;2023-03-31T10:38:35;13.75;63.51
71082;SHT31;58740;50.672;18.690;2023-03-31T10:41:10;13.78;63.39
71082;SHT31;58740;50.672;18.690;2023-03-31T10:43:48;13.84;62.09
71082;SHT31;58740;50.672;18.690;2023-03-31T10:46:19;13.86;62.57
71082;SHT31;58740;50.672;18.690;2023-03-31T10:48:48;13.89;62.74
71082;SHT31;58740;50.672;18.690;2023-03-31T10:51:24;13.90;62.77
71082;SHT31;58740;50.672;18.690;2023-03-31T10:53:54;13.88;63.33
71082;SHT31;58740;50.672;18.690;2023-03-31T10:56:42;13.87;63.02
71082;SHT31;58740;50.672;18.690;2023-03-31T11:06:25;13.85;62.63
71082;SHT31;58740;50.672;18.690;2023-03-31T11:12:30;13.97;63.72
71082;SHT31;58740;50.672;18.690;2023-03-31T11:15:36;14.07;63.52
71082;SHT31;58740;50.672;18.690;2023-03-31T11:21:31;14.19;63.68
71082;SHT31;58740;50.672;18.690;2023-03-31T11:32:10;14.45;60.95
71082;SHT31;58740;50.672;18.690;2023-03-31T11:41:22;14.27;62.77
71082;SHT31;58740;50.672;18.690;2023-03-31T11:44:05;14.24;62.99
71082;SHT31;58740;50.672;18.690;2023-03-31T11:46:55;14.21;63.56
71082;SHT31;58740;50.672;18.690;2023-03-31T11:49:29;14.16;63.35
71082;SHT31;58740;50.672;18.690;2023-03-31T11:52:07;14.13;63.67
71082;SHT31;58740;50.672;18.690;2023-03-31T11:57:34;14.20;63.32
71082;SHT31;58740;50.672;18.690;2023-03-31T12:06:11;14.33;63.16
71082;SHT31;58740;50.672;18.690;2023-03-31T12:12:06;14.38;62.79
71082;SHT31;58740;50.672;18.690;2023-03-31T12:14:51;14.41;63.07
71082;SHT31;58740;50.672;18.690;2023-03-31T12:17:25;14.45;62.56
71082;SHT31;58740;50.672;18.690;2023-03-31T12:19:57;14.52;61.83
71082;SHT31;58740;50.672;18.690;2023-03-31T12:22:38;14.58;62.51
71082;SHT31;58740;50.672;18.690;2023-03-31T12:25:12;14.59;61.82
71082;SHT31;58740;50.672;18.690;2023-03-31T12:27:44;14.59;61.79
71082;SHT31;58740;50.672;18.690;2023-03-31T12:33:02;14.57;61.71
71082;SHT31;58740;50.672;18.690;2023-03-31T12:48:01;14.46;61.74
71082;SHT31;58740;50.672;18.690;2023-03-31T12:56:55;14.34;61.43
71082;SHT31;58740;50.672;18.690;2023-03-31T12:59:36;14.30;61.49
71082;SHT31;58740;50.672;18.690;2023-03-31T13:04:42;14.20;61.77
71082;SHT31;58740;50.672;18.690;2023-03-31T13:10:22;14.07;62.69
71082;SHT31;58740;50.672;18.690;2023-03-31T13:15:52;13.90;64.00
71082;SHT31;58740;50.672;18.690;2023-03-31T13:18:25;13.84;64.17
71082;SHT31;58740;50.672;18.690;2023-03-31T13:21:01;13.80;64.36
71082;SHT31;58740;50.672;18.690;2023-03-31T13:23:35;13.75;64.80
71082;SHT31;58740;50.672;18.690;2023-03-31T13:34:45;13.60;67.38
71082;SHT31;58740;50.672;18.690;2023-03-31T13:41:00;13.63;67.80
71082;SHT31;58740;50.672;18.690;2023-03-31T13:47:04;13.60;67.49
71082;SHT31;58740;50.672;18.690;2023-03-31T13:52:38;13.46;68.35
71082;SHT31;58740;50.672;18.690;2023-03-31T13:55:27;13.46;68.61
71082;SHT31;58740;50.672;18.690;2023-03-31T13:58:26;13.49;68.33
71082;SHT31;58740;50.672;18.690;2023-03-31T14:07:17;13.59;65.59
71082;SHT31;58740;50.672;18.690;2023-03-31T14:10:27;13.56;65.25
71082;SHT31;58740;50.672;18.690;2023-03-31T14:13:04;13.53;65.67
71082;SHT31;58740;50.672;18.690;2023-03-31T14:15:35;13.53;65.73
71082;SHT31;58740;50.672;18.690;2023-03-31T14:18:22;13.54;65.85
71082;SHT31;58740;50.672;18.690;2023-03-31T14:21:20;13.51;65.64
71082;SHT31;58740;50.672;18.690;2023-03-31T14:24:06;13.51;65.67
71082;SHT31;58740;50.672;18.690;2023-03-31T14:29:40;13.42;66.10
71082;SHT31;58740;50.672;18.690;2023-03-31T14:32:26;13.37;66.59
71082;SHT31;58740;50.672;18.690;2023-03-31T14:35:37;13.32;66.99
71082;SHT31;58740;50.672;18.690;2023-03-31T14:38:25;13.25;66.89
71082;SHT31;58740;50.672;18.690;2023-03-31T14:40:56;13.21;67.32
71082;SHT31;58740;50.672;18.690;2023-03-31T14:43:31;13.16;67.30
71082;SHT31;58740;50.672;18.690;2023-03-31T14:46:06;13.09;67.93
71082;SHT31;58740;50.672;18.690;2023-03-31T14:48:40;12.96;68.39
71082;SHT31;58740;50.672;18.690;2023-03-31T14:51:14;12.84;69.14
71082;SHT31;58740;50.672;18.690;2023-03-31T14:53:44;12.74;69.79
71082;SHT31;58740;50.672;18.690;2023-03-31T14:56:13;12.65;70.57
71082;SHT31;58740;50.672;18.690;2023-03-31T14:58:47;12.57;70.88
71082;SHT31;58740;50.672;18.690;2023-03-31T15:01:28;12.46;71.73
71082;SHT31;58740;50.672;18.690;2023-03-31T15:04:06;12.32;72.11
71082;SHT31;58740;50.672;18.690;2023-03-31T15:06:41;12.21;72.89
71082;SHT31;58740;50.672;18.690;2023-03-31T15:09:18;12.10;73.51
71082;SHT31;58740;50.672;18.690;2023-03-31T15:12:05;11.99;74.13
71082;SHT31;58740;50.672;18.690;2023-03-31T15:14:41;11.92;74.47
71082;SHT31;58740;50.672;18.690;2023-03-31T15:17:56;11.87;74.97
71082;SHT31;58740;50.672;18.690;2023-03-31T15:20:20;11.81;75.16
71082;SHT31;58740;50.672;18.690;2023-03-31T15:23:03;11.79;75.34
71082;SHT31;58740;50.672;18.690;2023-03-31T15:25:52;11.77;75.57
71082;SHT31;58740;50.672;18.690;2023-03-31T15:28:26;11.76;75.40
71082;SHT31;58740;50.672;18.690;2023-03-31T15:31:03;11.76;75.62
71082;SHT31;58740;50.672;18.690;2023-03-31T15:33:38;11.72;75.79
71082;SHT31;58740;50.672;18.690;2023-03-31T15:36:10;11.70;76.06
71082;SHT31;58740;50.672;18.690;2023-03-31T15:38:39;11.70;76.11
71082;SHT31;58740;50.672;18.690;2023-03-31T15:41:11;11.73;76.05
71082;SHT31;58740;50.672;18.690;2023-03-31T15:43:47;11.76;76.14
71082;SHT31;58740;50.672;18.690;2023-03-31T15:49:05;11.79;75.86
71082;SHT31;58740;50.672;18.690;2023-03-31T15:51:50;11.82;75.67
71082;SHT31;58740;50.672;18.690;2023-03-31T15:57:08;11.91;75.56
71082;SHT31;58740;50.672;18.690;2023-03-31T15:59:46;11.95;75.35
71082;SHT31;58740;50.672;18.690;2023-03-31T16:02:24;11.99;75.03
71082;SHT31;58740;50.672;18.690;2023-03-31T16:05:04;12.01;74.82
71082;SHT31;58740;50.672;18.690;2023-03-31T16:07:46;12.04;74.68
71082;SHT31;58740;50.672;18.690;2023-03-31T16:10:16;12.05;74.50
71082;SHT31;58740;50.672;18.690;2023-03-31T16:12:54;12.06;74.34
71082;SHT31;58740;50.672;18.690;2023-03-31T16:18:09;12.04;74.01
71082;SHT31;58740;50.672;18.690;2023-03-31T16:20:49;12.05;73.97
71082;SHT31;58740;50.672;18.690;2023-03-31T16:23:23;12.07;73.83
71082;SHT31;58740;50.672;18.690;2023-03-31T16:25:58;12.06;73.79
71082;SHT31;58740;50.672;18.690;2023-03-31T16:28:28;12.06;73.69
71082;SHT31;58740;50.672;18.690;2023-03-31T16:31:00;12.04;73.73
71082;SHT31;58740;50.672;18.690;2023-03-31T16:33:30;12.04;73.71
71082;SHT31;58740;50.672;18.690;2023-03-31T16:36:20;12.04;73.79
71082;SHT31;58740;50.672;18.690;2023-03-31T16:38:50;12.03;73.81
71082;SHT31;58740;50.672;18.690;2023-03-31T16:41:20;12.04;73.80
71082;SHT31;58740;50.672;18.690;2023-03-31T16:43:49;12.03;73.95
71082;SHT31;58740;50.672;18.690;2023-03-31T16:46:21;12.02;74.19
71082;SHT31;58740;50.672;18.690;2023-03-31T16:48:50;12.00;74.50
71082;SHT31;58740;50.672;18.690;2023-03-31T16:51:19;11.98;74.50
71082;SHT31;58740;50.672;18.690;2023-03-31T16:53:48;11.96;74.79
71082;SHT31;58740;50.672;18.690;2023-03-31T16:56:15;11.92;74.80
71082;SHT31;58740;50.672;18.690;2023-03-31T16:58:43;11.87;74.89
71082;SHT31;58740;50.672;18.690;2023-03-31T17:01:11;11.83;75.14
71082;SHT31;58740;50.672;18.690;2023-03-31T17:03:39;11.77;75.22
71082;SHT31;58740;50.672;18.690;2023-03-31T17:06:10;11.74;75.40
71082;SHT31;58740;50.672;18.690;2023-03-31T17:08:39;11.73;75.47
71082;SHT31;58740;50.672;18.690;2023-03-31T17:11:08;11.71;75.58
71082;SHT31;58740;50.672;18.690;2023-03-31T17:13:40;11.70;75.68
71082;SHT31;58740;50.672;18.690;2023-03-31T17:16:09;11.70;75.67
71082;SHT31;58740;50.672;18.690;2023-03-31T17:18:41;11.70;75.76
71082;SHT31;58740;50.672;18.690;2023-03-31T17:21:11;11.66;75.97
71082;SHT31;58740;50.672;18.690;2023-03-31T17:23:41;11.60;76.30
71082;SHT31;58740;50.672;18.690;2023-03-31T17:26:09;11.52;76.60
71082;SHT31;58740;50.672;18.690;2023-03-31T17:28:39;11.45;76.85
71082;SHT31;58740;50.672;18.690;2023-03-31T17:31:14;11.41;77.03
71082;SHT31;58740;50.672;18.690;2023-03-31T17:33:46;11.36;77.06
71082;SHT31;58740;50.672;18.690;2023-03-31T17:36:14;11.33;76.96
71082;SHT31;58740;50.672;18.690;2023-03-31T17:38:43;11.34;76.76
71082;SHT31;58740;50.672;18.690;2023-03-31T17:41:11;11.34;76.76
71082;SHT31;58740;50.672;18.690;2023-03-31T17:43:43;11.35;76.63
71082;SHT31;58740;50.672;18.690;2023-03-31T17:46:13;11.34;76.78
71082;SHT31;58740;50.672;18.690;2023-03-31T17:48:42;11.30;77.07
71082;SHT31;58740;50.672;18.690;2023-03-31T17:51:12;11.27;77.26
71082;SHT31;58740;50.672;18.690;2023-03-31T17:53:43;11.23;77.41
71082;SHT31;58740;50.672;18.690;2023-03-31T17:56:13;11.21;77.47
71082;SHT31;58740;50.672;18.690;2023-03-31T17:58:43;11.17;77.55
71082;SHT31;58740;50.672;18.690;2023-03-31T18:01:13;11.13;77.62
71082;SHT31;58740;50.672;18.690;2023-03-31T18:03:41;11.08;77.72
71082;SHT31;58740;50.672;18.690;2023-03-31T18:06:10;11.05;77.73
71082;SHT31;58740;50.672;18.690;2023-03-31T18:08:40;11.03;77.84
71082;SHT31;58740;50.672;18.690;2023-03-31T18:11:09;11.00;77.82
71082;SHT31;58740;50.672;18.690;2023-03-31T18:13:38;10.99;77.87
71082;SHT31;58740;50.672;18.690;2023-03-31T18:16:07;10.97;78.02
71082;SHT31;58740;50.672;18.690;2023-03-31T18:18:37;10.93;78.12
71082;SHT31;58740;50.672;18.690;2023-03-31T18:21:06;10.89;78.30
71082;SHT31;58740;50.672;18.690;2023-03-31T18:23:37;10.88;78.19
71082;SHT31;58740;50.672;18.690;2023-03-31T18:26:07;10.89;78.09
71082;SHT31;58740;50.672;18.690;2023-03-31T18:28:37;10.88;78.12
71082;SHT31;58740;50.672;18.690;2023-03-31T18:31:07;10.89;77.98